sensor_id;sensor_type;location;lat;lon;timestamp;P1;durP1;ratioP1;P2;durP2;ratioP2
55575;SDS011;41437;45.478;9.116;2022-09-09T00:02:45;19.95;;;10.93;;
55575;SDS011;41437;45.478;9.116;2022-09-09T00:05:57;11.68;;;8.65;;
55575;SDS011;41437;45.478;9.116;2022-09-09T00:09:04;17.15;;;10.40;;
55575;SDS011;41437;45.478;9.116;2022-09-09T00:12:13;16.55;;;10.82;;
55575;SDS011;41437;45.478;9.116;2022-09-09T00:15:22;19.27;;;10.77;;
55575;SDS011;41437;45.478;9.116;2022-09-09T00:18:27;18.30;;;11.80;;
55575;SDS011;41437;45.478;9.116;2022-09-09T00:21:34;15.60;;;9.90;;
55575;SDS011;41437;45.478;9.116;2022-09-09T00:24:38;15.27;;;10.43;;
55575;SDS011;41437;45.478;9.116;2022-09-09T00:27:46;14.52;;;11.55;;
55575;SDS011;41437;45.478;9.116;2022-09-09T00:30:48;15.30;;;11.55;;
55575;SDS011;41437;45.478;9.116;2022-09-09T00:33:50;15.75;;;10.18;;
55575;SDS011;41437;45.478;9.116;2022-09-09T00:39:57;16.57;;;10.87;;
55575;SDS011;41437;45.478;9.116;2022-09-09T00:43:08;15.02;;;11.15;;
55575;SDS011;41437;45.478;9.116;2022-09-09T00:46:26;19.33;;;11.27;;
55575;SDS011;41437;45.478;9.116;2022-09-09T00:49:45;20.92;;;12.93;;
55575;SDS011;41437;45.478;9.116;2022-09-09T00:53:01;19.35;;;12.77;;
55575;SDS011;41437;45.478;9.116;2022-09-09T00:56:13;20.33;;;12.48;;
55575;SDS011;41437;45.478;9.116;2022-09-09T00:59:23;18.70;;;13.45;;
55575;SDS011;41437;45.478;9.116;2022-09-09T01:02:30;18.95;;;12.27;;
55575;SDS011;41437;45.478;9.116;2022-09-09T01:05:39;19.55;;;14.20;;
55575;SDS011;41437;45.478;9.116;2022-09-09T01:08:58;19.25;;;13.13;;
55575;SDS011;41437;45.478;9.116;2022-09-09T01:12:08;21.42;;;14.75;;
55575;SDS011;41437;45.478;9.116;2022-09-09T01:15:17;19.90;;;12.93;;
55575;SDS011;41437;45.478;9.116;2022-09-09T01:18:26;19.00;;;13.63;;
55575;SDS011;41437;45.478;9.116;2022-09-09T01:21:33;16.83;;;13.50;;
55575;SDS011;41437;45.478;9.116;2022-09-09T01:24:40;20.45;;;12.20;;
55575;SDS011;41437;45.478;9.116;2022-09-09T01:27:51;19.05;;;13.75;;
55575;SDS011;41437;45.478;9.116;2022-09-09T01:30:56;21.95;;;14.13;;
55575;SDS011;41437;45.478;9.116;2022-09-09T01:33:58;17.73;;;13.82;;
55575;SDS011;41437;45.478;9.116;2022-09-09T01:37:01;17.50;;;13.93;;
55575;SDS011;41437;45.478;9.116;2022-09-09T01:40:06;22.40;;;14.13;;
55575;SDS011;41437;45.478;9.116;2022-09-09T01:43:10;21.15;;;14.43;;
55575;SDS011;41437;45.478;9.116;2022-09-09T01:46:11;21.65;;;13.35;;
55575;SDS011;41437;45.478;9.116;2022-09-09T01:49:14;20.95;;;14.70;;
55575;SDS011;41437;45.478;9.116;2022-09-09T01:52:17;23.88;;;14.40;;
55575;SDS011;41437;45.478;9.116;2022-09-09T01:55:19;23.63;;;14.45;;
55575;SDS011;41437;45.478;9.116;2022-09-09T01:58:34;20.95;;;14.82;;
55575;SDS011;41437;45.478;9.116;2022-09-09T02:01:49;19.50;;;13.77;;
55575;SDS011;41437;45.478;9.116;2022-09-09T02:05:03;19.65;;;13.40;;
55575;SDS011;41437;45.478;9.116;2022-09-09T02:08:14;18.38;;;13.52;;
55575;SDS011;41437;45.478;9.116;2022-09-09T02:11:21;19.30;;;14.52;;
55575;SDS011;41437;45.478;9.116;2022-09-09T02:17:31;17.63;;;12.95;;
55575;SDS011;41437;45.478;9.116;2022-09-09T02:20:37;19.30;;;13.95;;
55575;SDS011;41437;45.478;9.116;2022-09-09T02:23:40;20.83;;;14.00;;
55575;SDS011;41437;45.478;9.116;2022-09-09T02:26:44;22.67;;;15.13;;
55575;SDS011;41437;45.478;9.116;2022-09-09T02:29:50;21.88;;;15.35;;
55575;SDS011;41437;45.478;9.116;2022-09-09T02:32:54;20.73;;;14.13;;
55575;SDS011;41437;45.478;9.116;2022-09-09T02:35:59;20.95;;;14.50;;
55575;SDS011;41437;45.478;9.116;2022-09-09T02:39:03;19.58;;;14.18;;
55575;SDS011;41437;45.478;9.116;2022-09-09T02:42:08;19.80;;;14.60;;
55575;SDS011;41437;45.478;9.116;2022-09-09T02:45:11;21.85;;;15.13;;
55575;SDS011;41437;45.478;9.116;2022-09-09T02:48:17;25.80;;;14.55;;
55575;SDS011;41437;45.478;9.116;2022-09-09T02:51:28;20.08;;;14.57;;
55575;SDS011;41437;45.478;9.116;2022-09-09T02:54:37;23.55;;;15.13;;
55575;SDS011;41437;45.478;9.116;2022-09-09T02:57:39;21.30;;;15.40;;
55575;SDS011;41437;45.478;9.116;2022-09-09T03:00:45;22.45;;;15.57;;
55575;SDS011;41437;45.478;9.116;2022-09-09T03:03:47;19.98;;;15.10;;
55575;SDS011;41437;45.478;9.116;2022-09-09T03:06:49;19.38;;;13.73;;
55575;SDS011;41437;45.478;9.116;2022-09-09T03:09:51;25.67;;;18.05;;
55575;SDS011;41437;45.478;9.116;2022-09-09T03:12:54;26.88;;;17.52;;
55575;SDS011;41437;45.478;9.116;2022-09-09T03:15:57;24.77;;;18.42;;
55575;SDS011;41437;45.478;9.116;2022-09-09T03:18:59;20.60;;;16.33;;
55575;SDS011;41437;45.478;9.116;2022-09-09T03:22:01;26.48;;;17.73;;
55575;SDS011;41437;45.478;9.116;2022-09-09T03:25:04;24.73;;;18.50;;
55575;SDS011;41437;45.478;9.116;2022-09-09T03:28:06;25.00;;;17.95;;
55575;SDS011;41437;45.478;9.116;2022-09-09T03:31:09;24.20;;;18.13;;
55575;SDS011;41437;45.478;9.116;2022-09-09T03:37:13;27.70;;;18.15;;
55575;SDS011;41437;45.478;9.116;2022-09-09T03:40:15;25.15;;;17.75;;
55575;SDS011;41437;45.478;9.116;2022-09-09T03:43:18;26.92;;;17.92;;
55575;SDS011;41437;45.478;9.116;2022-09-09T03:46:23;30.13;;;17.70;;
55575;SDS011;41437;45.478;9.116;2022-09-09T03:49:25;26.10;;;17.73;;
55575;SDS011;41437;45.478;9.116;2022-09-09T03:52:28;24.88;;;17.60;;
55575;SDS011;41437;45.478;9.116;2022-09-09T03:55:30;25.15;;;18.05;;
55575;SDS011;41437;45.478;9.116;2022-09-09T03:58:32;29.48;;;20.05;;
55575;SDS011;41437;45.478;9.116;2022-09-09T04:01:36;25.30;;;17.20;;
55575;SDS011;41437;45.478;9.116;2022-09-09T04:04:37;28.80;;;19.08;;
55575;SDS011;41437;45.478;9.116;2022-09-09T04:07:39;27.58;;;19.83;;
55575;SDS011;41437;45.478;9.116;2022-09-09T04:10:41;27.52;;;20.20;;
55575;SDS011;41437;45.478;9.116;2022-09-09T04:13:42;29.52;;;20.17;;
55575;SDS011;41437;45.478;9.116;2022-09-09T04:16:45;28.95;;;21.67;;
55575;SDS011;41437;45.478;9.116;2022-09-09T04:19:47;31.45;;;21.10;;
55575;SDS011;41437;45.478;9.116;2022-09-09T04:22:49;25.42;;;18.92;;
55575;SDS011;41437;45.478;9.116;2022-09-09T04:25:52;26.30;;;18.90;;
55575;SDS011;41437;45.478;9.116;2022-09-09T04:28:55;30.52;;;20.10;;
55575;SDS011;41437;45.478;9.116;2022-09-09T04:31:58;27.88;;;20.13;;
55575;SDS011;41437;45.478;9.116;2022-09-09T04:34:59;27.42;;;19.48;;
55575;SDS011;41437;45.478;9.116;2022-09-09T04:38:01;30.40;;;20.30;;
55575;SDS011;41437;45.478;9.116;2022-09-09T04:41:04;27.45;;;18.15;;
55575;SDS011;41437;45.478;9.116;2022-09-09T04:44:07;25.17;;;19.17;;
55575;SDS011;41437;45.478;9.116;2022-09-09T04:47:11;31.50;;;20.00;;
55575;SDS011;41437;45.478;9.116;2022-09-09T04:50:14;30.65;;;20.30;;
55575;SDS011;41437;45.478;9.116;2022-09-09T04:53:16;30.83;;;21.45;;
55575;SDS011;41437;45.478;9.116;2022-09-09T04:56:18;34.05;;;21.23;;
55575;SDS011;41437;45.478;9.116;2022-09-09T04:59:20;31.23;;;20.70;;
55575;SDS011;41437;45.478;9.116;2022-09-09T05:02:23;26.90;;;18.05;;
55575;SDS011;41437;45.478;9.116;2022-09-09T05:05:24;29.92;;;21.35;;
55575;SDS011;41437;45.478;9.116;2022-09-09T05:08:26;30.10;;;21.48;;
55575;SDS011;41437;45.478;9.116;2022-09-09T05:11:28;23.48;;;17.45;;
55575;SDS011;41437;45.478;9.116;2022-09-09T05:14:33;30.58;;;19.58;;
55575;SDS011;41437;45.478;9.116;2022-09-09T05:17:37;26.65;;;19.35;;
55575;SDS011;41437;45.478;9.116;2022-09-09T05:20:38;29.88;;;20.60;;
55575;SDS011;41437;45.478;9.116;2022-09-09T05:23:42;28.77;;;19.55;;
55575;SDS011;41437;45.478;9.116;2022-09-09T05:26:44;29.55;;;20.15;;
55575;SDS011;41437;45.478;9.116;2022-09-09T05:29:45;26.88;;;18.50;;
55575;SDS011;41437;45.478;9.116;2022-09-09T05:32:49;27.25;;;19.63;;
55575;SDS011;41437;45.478;9.116;2022-09-09T05:35:54;29.80;;;21.17;;
55575;SDS011;41437;45.478;9.116;2022-09-09T05:38:57;29.55;;;20.80;;
55575;SDS011;41437;45.478;9.116;2022-09-09T05:41:59;26.17;;;21.13;;
55575;SDS011;41437;45.478;9.116;2022-09-09T05:45:01;27.85;;;21.10;;
55575;SDS011;41437;45.478;9.116;2022-09-09T05:48:04;32.67;;;21.23;;
55575;SDS011;41437;45.478;9.116;2022-09-09T05:51:08;27.70;;;20.38;;
55575;SDS011;41437;45.478;9.116;2022-09-09T05:54:12;26.67;;;20.02;;
55575;SDS011;41437;45.478;9.116;2022-09-09T05:57:15;32.42;;;21.17;;
55575;SDS011;41437;45.478;9.116;2022-09-09T06:00:17;28.25;;;19.92;;
55575;SDS011;41437;45.478;9.116;2022-09-09T06:03:20;27.77;;;21.55;;
55575;SDS011;41437;45.478;9.116;2022-09-09T06:06:24;27.60;;;18.42;;
55575;SDS011;41437;45.478;9.116;2022-09-09T06:09:27;17.02;;;13.52;;
55575;SDS011;41437;45.478;9.116;2022-09-09T06:12:30;13.60;;;10.93;;
55575;SDS011;41437;45.478;9.116;2022-09-09T06:15:33;17.33;;;10.93;;
55575;SDS011;41437;45.478;9.116;2022-09-09T06:18:36;13.95;;;9.57;;
55575;SDS011;41437;45.478;9.116;2022-09-09T06:21:37;14.13;;;10.13;;
55575;SDS011;41437;45.478;9.116;2022-09-09T06:24:40;15.35;;;9.85;;
55575;SDS011;41437;45.478;9.116;2022-09-09T06:27:41;12.93;;;7.95;;
55575;SDS011;41437;45.478;9.116;2022-09-09T06:30:43;9.00;;;6.57;;
55575;SDS011;41437;45.478;9.116;2022-09-09T06:33:46;11.10;;;5.93;;
55575;SDS011;41437;45.478;9.116;2022-09-09T06:36:48;7.70;;;5.35;;
55575;SDS011;41437;45.478;9.116;2022-09-09T06:39:49;9.10;;;5.03;;
55575;SDS011;41437;45.478;9.116;2022-09-09T06:42:51;12.63;;;5.78;;
55575;SDS011;41437;45.478;9.116;2022-09-09T06:45:53;8.68;;;4.63;;
55575;SDS011;41437;45.478;9.116;2022-09-09T06:48:57;7.32;;;4.68;;
55575;SDS011;41437;45.478;9.116;2022-09-09T06:52:00;7.18;;;4.05;;
55575;SDS011;41437;45.478;9.116;2022-09-09T06:55:01;8.10;;;5.20;;
55575;SDS011;41437;45.478;9.116;2022-09-09T06:58:07;7.30;;;4.63;;
55575;SDS011;41437;45.478;9.116;2022-09-09T07:01:09;7.47;;;4.32;;
55575;SDS011;41437;45.478;9.116;2022-09-09T07:04:14;7.95;;;5.00;;
55575;SDS011;41437;45.478;9.116;2022-09-09T07:07:16;10.07;;;4.80;;
55575;SDS011;41437;45.478;9.116;2022-09-09T07:10:35;10.57;;;5.15;;
55575;SDS011;41437;45.478;9.116;2022-09-09T07:13:37;9.38;;;4.80;;
55575;SDS011;41437;45.478;9.116;2022-09-09T07:16:38;8.88;;;4.97;;
55575;SDS011;41437;45.478;9.116;2022-09-09T07:19:42;8.80;;;5.60;;
55575;SDS011;41437;45.478;9.116;2022-09-09T07:22:43;12.32;;;7.13;;
55575;SDS011;41437;45.478;9.116;2022-09-09T07:25:44;11.38;;;6.72;;
55575;SDS011;41437;45.478;9.116;2022-09-09T07:28:47;10.73;;;7.67;;
55575;SDS011;41437;45.478;9.116;2022-09-09T07:31:49;13.30;;;7.90;;
55575;SDS011;41437;45.478;9.116;2022-09-09T07:34:52;12.52;;;7.25;;
55575;SDS011;41437;45.478;9.116;2022-09-09T07:37:54;10.95;;;6.72;;
55575;SDS011;41437;45.478;9.116;2022-09-09T07:41:02;11.90;;;6.72;;
55575;SDS011;41437;45.478;9.116;2022-09-09T07:44:05;9.27;;;5.95;;
55575;SDS011;41437;45.478;9.116;2022-09-09T07:47:08;10.35;;;5.72;;
55575;SDS011;41437;45.478;9.116;2022-09-09T07:50:11;10.52;;;5.90;;
55575;SDS011;41437;45.478;9.116;2022-09-09T07:53:15;9.43;;;5.82;;
55575;SDS011;41437;45.478;9.116;2022-09-09T07:56:17;8.52;;;5.30;;
55575;SDS011;41437;45.478;9.116;2022-09-09T07:59:21;11.40;;;5.93;;
55575;SDS011;41437;45.478;9.116;2022-09-09T08:02:24;7.33;;;4.43;;
55575;SDS011;41437;45.478;9.116;2022-09-09T08:05:30;7.78;;;4.28;;
55575;SDS011;41437;45.478;9.116;2022-09-09T08:08:32;8.95;;;4.20;;
55575;SDS011;41437;45.478;9.116;2022-09-09T08:11:34;7.80;;;4.33;;
55575;SDS011;41437;45.478;9.116;2022-09-09T08:14:37;6.40;;;3.67;;
55575;SDS011;41437;45.478;9.116;2022-09-09T08:17:39;8.32;;;3.80;;
55575;SDS011;41437;45.478;9.116;2022-09-09T08:20:44;7.30;;;4.00;;
55575;SDS011;41437;45.478;9.116;2022-09-09T08:23:45;8.90;;;3.72;;
55575;SDS011;41437;45.478;9.116;2022-09-09T08:26:48;10.50;;;3.05;;
55575;SDS011;41437;45.478;9.116;2022-09-09T08:29:50;7.78;;;3.08;;
55575;SDS011;41437;45.478;9.116;2022-09-09T08:32:51;11.05;;;2.75;;
55575;SDS011;41437;45.478;9.116;2022-09-09T08:35:55;7.63;;;3.08;;
55575;SDS011;41437;45.478;9.116;2022-09-09T08:38:59;10.77;;;2.95;;
55575;SDS011;41437;45.478;9.116;2022-09-09T08:42:22;10.82;;;2.60;;
55575;SDS011;41437;45.478;9.116;2022-09-09T08:45:31;5.15;;;2.55;;
55575;SDS011;41437;45.478;9.116;2022-09-09T08:48:47;7.22;;;2.67;;
55575;SDS011;41437;45.478;9.116;2022-09-09T08:51:59;6.15;;;2.60;;
55575;SDS011;41437;45.478;9.116;2022-09-09T08:55:16;7.45;;;2.33;;
55575;SDS011;41437;45.478;9.116;2022-09-09T08:58:24;7.70;;;2.45;;
55575;SDS011;41437;45.478;9.116;2022-09-09T09:01:36;8.38;;;2.97;;
55575;SDS011;41437;45.478;9.116;2022-09-09T09:08:20;7.10;;;2.65;;
55575;SDS011;41437;45.478;9.116;2022-09-09T09:11:35;5.97;;;2.55;;
55575;SDS011;41437;45.478;9.116;2022-09-09T09:15:05;6.20;;;2.58;;
55575;SDS011;41437;45.478;9.116;2022-09-09T09:18:16;7.65;;;2.60;;
55575;SDS011;41437;45.478;9.116;2022-09-09T09:21:19;4.88;;;2.40;;
55575;SDS011;41437;45.478;9.116;2022-09-09T09:24:27;5.82;;;2.20;;
55575;SDS011;41437;45.478;9.116;2022-09-09T09:27:36;7.38;;;2.10;;
55575;SDS011;41437;45.478;9.116;2022-09-09T09:30:42;8.90;;;2.08;;
55575;SDS011;41437;45.478;9.116;2022-09-09T09:33:48;6.25;;;2.80;;
55575;SDS011;41437;45.478;9.116;2022-09-09T09:36:53;5.38;;;2.40;;
55575;SDS011;41437;45.478;9.116;2022-09-09T09:40:08;4.70;;;1.92;;
55575;SDS011;41437;45.478;9.116;2022-09-09T09:43:16;6.22;;;1.63;;
55575;SDS011;41437;45.478;9.116;2022-09-09T09:46:25;3.92;;;1.80;;
55575;SDS011;41437;45.478;9.116;2022-09-09T09:49:27;4.57;;;1.70;;
55575;SDS011;41437;45.478;9.116;2022-09-09T09:52:30;4.95;;;1.48;;
55575;SDS011;41437;45.478;9.116;2022-09-09T09:55:36;5.05;;;1.48;;
55575;SDS011;41437;45.478;9.116;2022-09-09T10:01:54;6.15;;;1.30;;
55575;SDS011;41437;45.478;9.116;2022-09-09T10:08:26;2.90;;;1.38;;
55575;SDS011;41437;45.478;9.116;2022-09-09T10:11:33;5.57;;;1.38;;
55575;SDS011;41437;45.478;9.116;2022-09-09T10:14:46;6.70;;;1.52;;
55575;SDS011;41437;45.478;9.116;2022-09-09T10:17:58;7.95;;;2.88;;
55575;SDS011;41437;45.478;9.116;2022-09-09T10:25:18;5.18;;;2.00;;
55575;SDS011;41437;45.478;9.116;2022-09-09T10:28:40;4.95;;;1.65;;
55575;SDS011;41437;45.478;9.116;2022-09-09T10:32:03;3.40;;;1.55;;
55575;SDS011;41437;45.478;9.116;2022-09-09T10:35:22;3.90;;;1.67;;
55575;SDS011;41437;45.478;9.116;2022-09-09T10:38:28;5.32;;;1.90;;
55575;SDS011;41437;45.478;9.116;2022-09-09T10:41:42;5.80;;;1.80;;
55575;SDS011;41437;45.478;9.116;2022-09-09T10:44:55;6.32;;;1.80;;
55575;SDS011;41437;45.478;9.116;2022-09-09T10:48:19;3.20;;;1.60;;
55575;SDS011;41437;45.478;9.116;2022-09-09T10:51:47;5.57;;;1.55;;
55575;SDS011;41437;45.478;9.116;2022-09-09T10:54:58;5.03;;;1.77;;
55575;SDS011;41437;45.478;9.116;2022-09-09T10:58:04;6.00;;;1.75;;
55575;SDS011;41437;45.478;9.116;2022-09-09T11:01:12;4.63;;;1.67;;
55575;SDS011;41437;45.478;9.116;2022-09-09T11:04:19;5.18;;;1.38;;
55575;SDS011;41437;45.478;9.116;2022-09-09T11:07:25;3.72;;;1.80;;
55575;SDS011;41437;45.478;9.116;2022-09-09T11:10:37;4.60;;;1.50;;
55575;SDS011;41437;45.478;9.116;2022-09-09T11:13:44;3.60;;;1.50;;
55575;SDS011;41437;45.478;9.116;2022-09-09T11:16:53;5.38;;;1.60;;
55575;SDS011;41437;45.478;9.116;2022-09-09T11:20:06;5.10;;;1.50;;
55575;SDS011;41437;45.478;9.116;2022-09-09T11:23:13;3.65;;;1.60;;
55575;SDS011;41437;45.478;9.116;2022-09-09T11:26:27;4.78;;;1.88;;
55575;SDS011;41437;45.478;9.116;2022-09-09T11:33:36;4.85;;;1.55;;
55575;SDS011;41437;45.478;9.116;2022-09-09T11:36:56;6.35;;;1.50;;
55575;SDS011;41437;45.478;9.116;2022-09-09T11:40:14;3.97;;;1.70;;
55575;SDS011;41437;45.478;9.116;2022-09-09T11:43:23;4.15;;;1.60;;
55575;SDS011;41437;45.478;9.116;2022-09-09T11:46:37;14.18;;;10.68;;
55575;SDS011;41437;45.478;9.116;2022-09-09T11:49:55;6.78;;;4.03;;
55575;SDS011;41437;45.478;9.116;2022-09-09T11:53:21;5.03;;;2.10;;
55575;SDS011;41437;45.478;9.116;2022-09-09T11:56:24;6.95;;;3.10;;
55575;SDS011;41437;45.478;9.116;2022-09-09T11:59:31;4.55;;;1.88;;
55575;SDS011;41437;45.478;9.116;2022-09-09T12:02:35;6.35;;;2.33;;
55575;SDS011;41437;45.478;9.116;2022-09-09T12:05:39;5.78;;;1.95;;
55575;SDS011;41437;45.478;9.116;2022-09-09T12:08:45;4.30;;;1.90;;
55575;SDS011;41437;45.478;9.116;2022-09-09T12:11:50;5.68;;;1.98;;
55575;SDS011;41437;45.478;9.116;2022-09-09T12:15:19;5.45;;;1.70;;
55575;SDS011;41437;45.478;9.116;2022-09-09T12:18:34;6.88;;;2.95;;
55575;SDS011;41437;45.478;9.116;2022-09-09T12:22:23;6.40;;;3.00;;
55575;SDS011;41437;45.478;9.116;2022-09-09T12:25:34;5.10;;;2.70;;
55575;SDS011;41437;45.478;9.116;2022-09-09T12:28:51;6.43;;;1.90;;
55575;SDS011;41437;45.478;9.116;2022-09-09T12:32:00;6.70;;;1.77;;
55575;SDS011;41437;45.478;9.116;2022-09-09T12:35:09;4.35;;;1.70;;
55575;SDS011;41437;45.478;9.116;2022-09-09T12:38:17;4.13;;;1.50;;
55575;SDS011;41437;45.478;9.116;2022-09-09T12:41:26;5.25;;;1.95;;
55575;SDS011;41437;45.478;9.116;2022-09-09T12:44:29;4.53;;;1.73;;
55575;SDS011;41437;45.478;9.116;2022-09-09T12:50:43;6.20;;;1.95;;
55575;SDS011;41437;45.478;9.116;2022-09-09T12:53:47;4.38;;;1.50;;
55575;SDS011;41437;45.478;9.116;2022-09-09T12:56:50;4.75;;;1.60;;
55575;SDS011;41437;45.478;9.116;2022-09-09T12:59:51;6.63;;;2.00;;
55575;SDS011;41437;45.478;9.116;2022-09-09T13:02:54;4.90;;;1.58;;
55575;SDS011;41437;45.478;9.116;2022-09-09T13:06:09;5.40;;;1.63;;
55575;SDS011;41437;45.478;9.116;2022-09-09T13:09:14;3.92;;;1.60;;
55575;SDS011;41437;45.478;9.116;2022-09-09T13:12:18;5.18;;;1.70;;
55575;SDS011;41437;45.478;9.116;2022-09-09T13:15:23;4.30;;;1.77;;
55575;SDS011;41437;45.478;9.116;2022-09-09T13:18:29;4.75;;;2.10;;
55575;SDS011;41437;45.478;9.116;2022-09-09T13:21:35;4.57;;;1.90;;
55575;SDS011;41437;45.478;9.116;2022-09-09T13:24:39;7.43;;;1.90;;
55575;SDS011;41437;45.478;9.116;2022-09-09T13:27:50;5.07;;;1.85;;
55575;SDS011;41437;45.478;9.116;2022-09-09T13:30:57;4.35;;;1.80;;
55575;SDS011;41437;45.478;9.116;2022-09-09T13:34:10;4.85;;;1.75;;
55575;SDS011;41437;45.478;9.116;2022-09-09T13:37:17;4.85;;;1.60;;
55575;SDS011;41437;45.478;9.116;2022-09-09T13:40:25;6.00;;;1.88;;
55575;SDS011;41437;45.478;9.116;2022-09-09T13:43:27;7.18;;;1.70;;
55575;SDS011;41437;45.478;9.116;2022-09-09T13:52:34;4.75;;;1.75;;
55575;SDS011;41437;45.478;9.116;2022-09-09T13:55:40;18.45;;;1.98;;
55575;SDS011;41437;45.478;9.116;2022-09-09T13:58:41;7.70;;;1.98;;
55575;SDS011;41437;45.478;9.116;2022-09-09T14:01:43;5.70;;;1.67;;
55575;SDS011;41437;45.478;9.116;2022-09-09T14:04:45;6.28;;;2.10;;
55575;SDS011;41437;45.478;9.116;2022-09-09T14:07:50;5.65;;;1.73;;
55575;SDS011;41437;45.478;9.116;2022-09-09T14:10:55;4.43;;;1.48;;
55575;SDS011;41437;45.478;9.116;2022-09-09T14:13:59;5.00;;;1.60;;
55575;SDS011;41437;45.478;9.116;2022-09-09T14:17:03;3.70;;;1.70;;
55575;SDS011;41437;45.478;9.116;2022-09-09T14:20:05;5.60;;;1.83;;
55575;SDS011;41437;45.478;9.116;2022-09-09T14:23:09;4.90;;;1.58;;
55575;SDS011;41437;45.478;9.116;2022-09-09T14:26:13;5.47;;;1.60;;
55575;SDS011;41437;45.478;9.116;2022-09-09T14:29:15;4.78;;;1.52;;
55575;SDS011;41437;45.478;9.116;2022-09-09T14:32:16;3.72;;;1.40;;
55575;SDS011;41437;45.478;9.116;2022-09-09T14:35:18;3.85;;;1.50;;
55575;SDS011;41437;45.478;9.116;2022-09-09T14:38:19;6.80;;;1.60;;
55575;SDS011;41437;45.478;9.116;2022-09-09T14:41:23;5.83;;;1.47;;
55575;SDS011;41437;45.478;9.116;2022-09-09T14:44:25;3.50;;;1.40;;
55575;SDS011;41437;45.478;9.116;2022-09-09T14:47:26;5.90;;;1.58;;
55575;SDS011;41437;45.478;9.116;2022-09-09T14:50:29;5.97;;;1.67;;
55575;SDS011;41437;45.478;9.116;2022-09-09T14:53:30;6.90;;;1.50;;
55575;SDS011;41437;45.478;9.116;2022-09-09T14:56:34;3.90;;;1.70;;
55575;SDS011;41437;45.478;9.116;2022-09-09T14:59:35;6.43;;;1.70;;
55575;SDS011;41437;45.478;9.116;2022-09-09T15:02:37;3.83;;;1.58;;
55575;SDS011;41437;45.478;9.116;2022-09-09T15:05:39;5.97;;;1.50;;
55575;SDS011;41437;45.478;9.116;2022-09-09T15:08:41;3.30;;;1.35;;
55575;SDS011;41437;45.478;9.116;2022-09-09T15:11:46;8.05;;;1.70;;
55575;SDS011;41437;45.478;9.116;2022-09-09T15:14:47;5.13;;;1.35;;
55575;SDS011;41437;45.478;9.116;2022-09-09T15:17:50;5.30;;;1.38;;
55575;SDS011;41437;45.478;9.116;2022-09-09T15:20:51;6.93;;;1.60;;
55575;SDS011;41437;45.478;9.116;2022-09-09T15:23:53;4.22;;;1.42;;
55575;SDS011;41437;45.478;9.116;2022-09-09T15:26:57;4.28;;;1.55;;
55575;SDS011;41437;45.478;9.116;2022-09-09T15:29:58;3.47;;;1.30;;
55575;SDS011;41437;45.478;9.116;2022-09-09T15:33:00;6.13;;;1.60;;
55575;SDS011;41437;45.478;9.116;2022-09-09T15:36:11;4.55;;;1.42;;
55575;SDS011;41437;45.478;9.116;2022-09-09T15:39:15;9.00;;;1.90;;
55575;SDS011;41437;45.478;9.116;2022-09-09T15:42:20;4.50;;;1.65;;
55575;SDS011;41437;45.478;9.116;2022-09-09T15:48:23;4.38;;;1.60;;
55575;SDS011;41437;45.478;9.116;2022-09-09T15:51:31;3.42;;;1.45;;
55575;SDS011;41437;45.478;9.116;2022-09-09T15:54:34;4.83;;;1.60;;
55575;SDS011;41437;45.478;9.116;2022-09-09T15:57:37;4.32;;;1.63;;
55575;SDS011;41437;45.478;9.116;2022-09-09T16:03:41;3.70;;;1.50;;
55575;SDS011;41437;45.478;9.116;2022-09-09T16:06:42;4.93;;;1.52;;
55575;SDS011;41437;45.478;9.116;2022-09-09T16:09:44;4.07;;;1.60;;
55575;SDS011;41437;45.478;9.116;2022-09-09T16:12:47;4.57;;;1.80;;
55575;SDS011;41437;45.478;9.116;2022-09-09T16:15:53;4.05;;;1.70;;
55575;SDS011;41437;45.478;9.116;2022-09-09T16:18:56;5.05;;;1.30;;
55575;SDS011;41437;45.478;9.116;2022-09-09T16:21:59;6.53;;;1.70;;
55575;SDS011;41437;45.478;9.116;2022-09-09T16:25:01;5.75;;;1.73;;
55575;SDS011;41437;45.478;9.116;2022-09-09T16:28:05;3.13;;;1.73;;
55575;SDS011;41437;45.478;9.116;2022-09-09T16:34:08;2.95;;;1.40;;
55575;SDS011;41437;45.478;9.116;2022-09-09T16:37:11;4.68;;;1.73;;
55575;SDS011;41437;45.478;9.116;2022-09-09T16:40:13;7.15;;;1.70;;
55575;SDS011;41437;45.478;9.116;2022-09-09T16:43:18;6.43;;;1.70;;
55575;SDS011;41437;45.478;9.116;2022-09-09T16:46:20;6.45;;;1.80;;
55575;SDS011;41437;45.478;9.116;2022-09-09T16:49:22;4.13;;;1.58;;
55575;SDS011;41437;45.478;9.116;2022-09-09T16:52:24;3.45;;;1.58;;
55575;SDS011;41437;45.478;9.116;2022-09-09T16:55:33;5.20;;;1.60;;
55575;SDS011;41437;45.478;9.116;2022-09-09T16:58:40;5.35;;;1.80;;
55575;SDS011;41437;45.478;9.116;2022-09-09T17:01:43;3.20;;;1.60;;
55575;SDS011;41437;45.478;9.116;2022-09-09T17:04:46;5.28;;;1.70;;
55575;SDS011;41437;45.478;9.116;2022-09-09T17:07:48;4.72;;;2.40;;
55575;SDS011;41437;45.478;9.116;2022-09-09T17:10:50;5.07;;;1.58;;
55575;SDS011;41437;45.478;9.116;2022-09-09T17:13:53;5.23;;;1.60;;
55575;SDS011;41437;45.478;9.116;2022-09-09T17:16:58;3.30;;;1.48;;
55575;SDS011;41437;45.478;9.116;2022-09-09T17:20:09;3.72;;;1.50;;
55575;SDS011;41437;45.478;9.116;2022-09-09T17:23:11;3.63;;;1.50;;
55575;SDS011;41437;45.478;9.116;2022-09-09T17:26:15;3.22;;;1.30;;
55575;SDS011;41437;45.478;9.116;2022-09-09T17:29:19;5.18;;;1.58;;
55575;SDS011;41437;45.478;9.116;2022-09-09T17:32:21;3.25;;;1.52;;
55575;SDS011;41437;45.478;9.116;2022-09-09T17:35:23;5.38;;;1.70;;
55575;SDS011;41437;45.478;9.116;2022-09-09T17:38:24;3.92;;;1.70;;
55575;SDS011;41437;45.478;9.116;2022-09-09T17:41:29;6.78;;;1.80;;
55575;SDS011;41437;45.478;9.116;2022-09-09T17:44:33;3.50;;;1.65;;
55575;SDS011;41437;45.478;9.116;2022-09-09T17:47:35;5.28;;;2.00;;
55575;SDS011;41437;45.478;9.116;2022-09-09T17:50:37;4.25;;;1.73;;
55575;SDS011;41437;45.478;9.116;2022-09-09T17:53:38;5.22;;;1.50;;
55575;SDS011;41437;45.478;9.116;2022-09-09T17:56:42;4.63;;;2.08;;
55575;SDS011;41437;45.478;9.116;2022-09-09T17:59:45;4.07;;;1.80;;
55575;SDS011;41437;45.478;9.116;2022-09-09T18:02:47;4.05;;;1.80;;
55575;SDS011;41437;45.478;9.116;2022-09-09T18:05:48;5.40;;;2.20;;
55575;SDS011;41437;45.478;9.116;2022-09-09T18:08:50;7.63;;;2.20;;
55575;SDS011;41437;45.478;9.116;2022-09-09T18:11:54;4.65;;;1.90;;
55575;SDS011;41437;45.478;9.116;2022-09-09T18:14:59;6.78;;;2.08;;
55575;SDS011;41437;45.478;9.116;2022-09-09T18:18:00;5.13;;;2.38;;
55575;SDS011;41437;45.478;9.116;2022-09-09T18:21:06;7.97;;;2.53;;
55575;SDS011;41437;45.478;9.116;2022-09-09T18:24:08;7.05;;;2.30;;
55575;SDS011;41437;45.478;9.116;2022-09-09T18:27:12;7.18;;;2.20;;
55575;SDS011;41437;45.478;9.116;2022-09-09T18:30:16;6.72;;;2.63;;
55575;SDS011;41437;45.478;9.116;2022-09-09T18:33:19;5.80;;;2.40;;
55575;SDS011;41437;45.478;9.116;2022-09-09T18:36:21;6.78;;;2.50;;
55575;SDS011;41437;45.478;9.116;2022-09-09T18:39:25;4.78;;;2.63;;
55575;SDS011;41437;45.478;9.116;2022-09-09T18:42:28;6.07;;;2.53;;
55575;SDS011;41437;45.478;9.116;2022-09-09T18:45:30;5.80;;;2.50;;
55575;SDS011;41437;45.478;9.116;2022-09-09T18:48:36;5.28;;;2.30;;
55575;SDS011;41437;45.478;9.116;2022-09-09T18:51:39;6.75;;;2.80;;
55575;SDS011;41437;45.478;9.116;2022-09-09T18:54:41;6.47;;;2.58;;
55575;SDS011;41437;45.478;9.116;2022-09-09T19:00:48;6.95;;;2.70;;
55575;SDS011;41437;45.478;9.116;2022-09-09T19:03:50;5.35;;;2.58;;
55575;SDS011;41437;45.478;9.116;2022-09-09T19:06:53;6.43;;;2.88;;
55575;SDS011;41437;45.478;9.116;2022-09-09T19:09:57;13.25;;;3.05;;
55575;SDS011;41437;45.478;9.116;2022-09-09T19:13:01;6.90;;;3.00;;
55575;SDS011;41437;45.478;9.116;2022-09-09T19:16:04;7.55;;;3.10;;